Time;durP1;ratioP1;P1;durP2;ratioP2;P2;SDS_P1;SDS_P2;PMS_P1;PMS_P2;Temp;Humidity;BMP_temperature;BMP_pressure;BME280_temperature;BME280_humidity;BME280_pressure;Samples;Min_cycle;Max_cycle;Signal;HPM_P1;HPM_P2
2022/05/07 00:00:29;;;;;;;9.10;7.25;;;;;;;13.82;100.00;99852.41;4923825;29;20035;-81
2022/05/07 00:02:55;;;;;;;7.57;6.70;;;;;;;13.78;100.00;99851.19;4925939;29;20105;-80
2022/05/07 00:05:21;;;;;;;6.85;6.15;;;;;;;13.70;100.00;99849.50;4924141;29;20036;-80
2022/05/07 00:07:48;;;;;;;8.38;6.43;;;;;;;13.85;100.00;99854.66;4924348;29;20039;-80
2022/05/07 00:10:14;;;;;;;9.05;6.72;;;;;;;13.79;100.00;99854.63;4919002;29;20052;-80
2022/05/07 00:12:43;;;;;;;7.28;6.07;;;;;;;13.77;100.00;99848.72;4918442;29;20027;-82
2022/05/07 00:15:09;;;;;;;7.13;5.82;;;;;;;14.13;100.00;99853.75;4906594;29;20059;-81
2022/05/07 00:20:20;;;;;;;7.60;5.60;;;;;;;13.66;100.00;99847.44;4919823;29;20489;-82
2022/05/07 00:22:46;;;;;;;8.52;5.57;;;;;;;13.77;100.00;99856.63;4922557;29;20043;-81
2022/05/07 00:25:11;;;;;;;10.20;5.78;;;;;;;13.49;100.00;99842.50;4924952;29;20044;-81
2022/05/07 00:27:37;;;;;;;6.05;4.95;;;;;;;13.46;100.00;99845.50;4923187;29;20119;-81
2022/05/07 00:30:07;;;;;;;6.03;4.70;;;;;;;13.31;100.00;99852.69;4926037;29;20036;-81
2022/05/07 00:32:33;;;;;;;10.27;4.85;;;;;;;13.24;100.00;99847.34;4923419;29;20032;-81
2022/05/07 00:34:59;;;;;;;5.30;4.55;;;;;;;13.22;100.00;99860.75;4927665;29;20366;-81
2022/05/07 00:37:25;;;;;;;7.57;4.72;;;;;;;13.17;100.00;99852.59;4920745;29;20039;-81
2022/05/07 00:39:51;;;;;;;5.15;4.10;;;;;;;12.97;100.00;99850.63;4922460;29;20028;-81
2022/05/07 00:42:18;;;;;;;5.80;4.45;;;;;;;12.84;100.00;99848.66;4907024;29;20489;-81
2022/05/07 00:44:44;;;;;;;5.38;4.07;;;;;;;12.84;100.00;99853.94;4923436;29;20040;-81
2022/05/07 00:47:24;;;;;;;8.40;4.30;;;;;;;12.83;100.00;99840.97;4922560;29;20032;-81
2022/05/07 00:49:54;;;;;;;5.03;3.60;;;;;;;12.65;100.00;99849.28;4922355;29;20351;-81
2022/05/07 00:52:20;;;;;;;4.68;3.60;;;;;;;12.75;100.00;99844.53;4925974;29;20065;-82
2022/05/07 00:54:47;;;;;;;5.38;3.67;;;;;;;12.78;100.00;99861.81;4922123;29;20100;-82
2022/05/07 00:57:16;;;;;;;6.63;3.42;;;;;;;12.66;100.00;99854.38;4924175;29;20375;-81
2022/05/07 00:59:42;;;;;;;7.45;4.03;;;;;;;12.60;100.00;99857.78;4927062;29;20119;-81
2022/05/07 01:02:08;;;;;;;6.60;3.60;;;;;;;12.58;100.00;99862.44;4923364;29;20035;-81
2022/05/07 01:04:38;;;;;;;5.20;3.88;;;;;;;12.39;100.00;99863.84;4927222;29;20540;-81
2022/05/07 01:07:04;;;;;;;6.22;3.85;;;;;;;12.47;100.00;99858.44;4925153;29;20027;-80
2022/05/07 01:09:31;;;;;;;9.10;3.88;;;;;;;12.50;100.00;99870.44;4917158;29;20032;-81
2022/05/07 01:11:57;;;;;;;8.65;3.53;;;;;;;12.36;100.00;99867.63;4919942;29;20085;-81
2022/05/07 01:14:23;;;;;;;6.38;3.47;;;;;;;12.35;100.00;99876.53;4926658;29;20515;-82
2022/05/07 01:16:49;;;;;;;7.40;3.75;;;;;;;12.37;100.00;99871.91;4919824;29;20028;-81
2022/05/07 01:19:14;;;;;;;9.98;4.40;;;;;;;11.97;100.00;99884.56;4923858;29;20151;-81
2022/05/07 01:21:40;;;;;;;11.40;4.50;;;;;;;11.96;100.00;99873.22;4905857;29;20043;-81
2022/05/07 01:24:07;;;;;;;6.90;4.50;;;;;;;11.91;100.00;99885.28;4926706;29;20027;-81
2022/05/07 01:26:32;;;;;;;7.20;4.35;;;;;;;11.97;100.00;99879.28;4924072;29;20087;-81
2022/05/07 01:29:07;;;;;;;9.43;4.20;;;;;;;11.84;100.00;99874.69;4905999;29;20128;-81
2022/05/07 01:31:34;;;;;;;10.20;3.92;;;;;;;11.85;100.00;99860.53;4924478;29;20038;-80
2022/05/07 01:34:00;;;;;;;6.03;3.38;;;;;;;11.88;100.00;99875.13;4921686;29;20111;-81
2022/05/07 01:36:25;;;;;;;9.93;4.05;;;;;;;11.63;100.00;99849.13;4909139;29;20127;-82
2022/05/07 01:38:51;;;;;;;8.10;4.13;;;;;;;11.71;100.00;99864.78;4923011;29;20095;-82
2022/05/07 01:41:17;;;;;;;5.22;3.58;;;;;;;11.79;100.00;99864.72;4921602;29;20032;-81
2022/05/07 01:43:43;;;;;;;6.85;3.67;;;;;;;11.71;100.00;99865.63;4921919;29;20035;-81
2022/05/07 01:48:09;;;;;;;11.35;4.25;;;;;;;11.73;100.00;99865.44;4925805;29;20424;-80
2022/05/07 01:48:54;;;;;;;7.13;3.40;;;;;;;11.69;100.00;99859.75;4923444;29;20087;-80
2022/05/07 01:51:20;;;;;;;6.80;3.47;;;;;;;11.66;100.00;99862.69;4926836;29;20403;-80
2022/05/07 01:53:46;;;;;;;7.65;3.90;;;;;;;11.58;100.00;99868.88;4909481;29;20032;-80
2022/05/07 01:56:11;;;;;;;9.50;4.32;;;;;;;11.57;100.00;99859.34;4927775;29;20036;-80
2022/05/07 01:58:37;;;;;;;13.70;4.28;;;;;;;11.46;100.00;99862.44;4923689;29;20031;-80
2022/05/07 02:01:02;;;;;;;5.45;3.38;;;;;;;11.31;100.00;99865.06;4921838;29;20036;-80
2022/05/07 02:03:28;;;;;;;11.23;4.15;;;;;;;11.43;100.00;99862.81;4919768;29;20036;-79
2022/05/07 02:05:54;;;;;;;7.20;3.75;;;;;;;11.36;100.00;99859.25;4916970;29;20517;-80
2022/05/07 02:08:19;;;;;;;11.25;4.13;;;;;;;11.35;100.00;99870.75;4918174;29;20036;-80
2022/05/07 02:10:45;;;;;;;9.88;4.15;;;;;;;11.38;100.00;99870.38;4920951;29;20071;-80
2022/05/07 02:13:11;;;;;;;9.65;4.25;;;;;;;11.44;100.00;99864.44;4922809;29;20044;-79
2022/05/07 02:15:37;;;;;;;10.75;4.47;;;;;;;11.46;100.00;99861.59;4918928;29;20039;-80
2022/05/07 02:18:03;;;;;;;9.85;4.65;;;;;;;11.48;100.00;99860.44;4920951;29;20030;-80
2022/05/07 02:20:29;;;;;;;7.85;3.78;;;;;;;11.36;100.00;99857.44;4927092;29;20115;-79
2022/05/07 02:22:55;;;;;;;10.23;3.88;;;;;;;11.34;100.00;99866.50;4929932;29;20571;-79
2022/05/07 02:25:22;;;;;;;7.68;4.15;;;;;;;11.22;100.00;99863.47;4926795;29;20076;-80
2022/05/07 02:27:49;;;;;;;12.13;4.28;;;;;;;11.23;100.00;99863.31;4922744;29;20038;-81
2022/05/07 02:30:14;;;;;;;11.25;4.63;;;;;;;11.10;100.00;99858.66;4926899;29;20040;-79
2022/05/07 02:32:42;;;;;;;6.13;3.83;;;;;;;11.29;100.00;99867.00;4930376;29;20075;-80
2022/05/07 02:35:08;;;;;;;10.32;3.78;;;;;;;11.22;100.00;99864.31;4924944;29;20035;-80
2022/05/07 02:37:33;;;;;;;9.55;3.92;;;;;;;11.13;100.00;99868.00;4925179;29;20398;-80
2022/05/07 02:39:59;;;;;;;10.57;3.80;;;;;;;11.12;100.00;99859.31;4925727;29;20028;-80
2022/05/07 02:42:33;;;;;;;7.68;3.33;;;;;;;11.20;100.00;99868.94;4924578;29;20079;-81
2022/05/07 02:45:01;;;;;;;10.38;4.15;;;;;;;11.26;100.00;99872.63;4926868;29;20028;-80
2022/05/07 02:47:29;;;;;;;6.03;3.83;;;;;;;11.13;100.00;99863.56;4906935;29;20067;-80
2022/05/07 02:49:55;;;;;;;6.40;3.65;;;;;;;11.27;100.00;99880.34;4924365;29;20079;-81
2022/05/07 02:52:21;;;;;;;7.45;3.75;;;;;;;11.19;100.00;99872.53;4929260;29;20063;-82
2022/05/07 02:54:46;;;;;;;7.43;3.65;;;;;;;11.18;100.00;99872.72;4920819;29;20028;-81
2022/05/07 02:57:12;;;;;;;7.50;3.33;;;;;;;11.22;100.00;99882.72;4924184;29;20034;-81
2022/05/07 02:59:41;;;;;;;11.70;3.67;;;;;;;11.22;100.00;99885.34;4925937;29;20111;-82
2022/05/07 03:02:07;;;;;;;8.25;3.60;;;;;;;11.11;100.00;99880.50;4920689;29;20209;-82
2022/05/07 03:04:34;;;;;;;8.20;3.40;;;;;;;11.18;100.00;99886.66;4929379;29;20118;-82
2022/05/07 03:07:00;;;;;;;6.18;3.83;;;;;;;11.03;100.00;99880.56;4929163;29;20095;-82
2022/05/07 03:09:25;;;;;;;8.65;3.70;;;;;;;11.02;100.00;99882.38;4925721;29;20028;-81
2022/05/07 03:11:51;;;;;;;7.18;3.92;;;;;;;11.09;100.00;99893.00;4921842;29;20743;-81
2022/05/07 03:14:17;;;;;;;8.43;3.85;;;;;;;11.00;100.00;99900.94;4926969;29;20047;-82
2022/05/07 03:16:42;;;;;;;8.68;4.20;;;;;;;11.03;100.00;99904.22;4926289;29;20496;-82
2022/05/07 03:19:07;;;;;;;10.27;4.10;;;;;;;10.83;100.00;99912.56;4932656;29;20028;-82
2022/05/07 03:21:34;;;;;;;7.15;5.00;;;;;;;11.04;100.00;99905.84;4919159;29;20483;-83
2022/05/07 03:24:00;;;;;;;9.55;3.85;;;;;;;11.05;100.00;99907.47;4920609;29;20047;-82
2022/05/07 03:26:26;;;;;;;10.32;4.13;;;;;;;11.06;100.00;99904.66;4927594;29;20119;-81
2022/05/07 03:28:52;;;;;;;10.93;4.10;;;;;;;10.82;100.00;99921.44;4927529;29;20450;-81
2022/05/07 03:31:19;;;;;;;10.13;3.80;;;;;;;11.01;100.00;99914.88;4923727;29;20135;-82
2022/05/07 03:33:46;;;;;;;6.53;3.60;;;;;;;10.90;100.00;99921.38;4925347;29;20103;-81
2022/05/07 03:36:15;;;;;;;8.00;3.83;;;;;;;11.03;100.00;99914.72;4926370;29;20032;-81
2022/05/07 03:38:41;;;;;;;8.70;3.20;;;;;;;10.97;100.00;99911.78;4920638;29;20032;-82
2022/05/07 03:41:08;;;;;;;10.93;3.78;;;;;;;11.00;100.00;99929.00;4925993;29;20035;-81
2022/05/07 03:43:36;;;;;;;9.32;3.88;;;;;;;11.03;100.00;99925.22;4926149;29;20097;-80
2022/05/07 03:46:04;;;;;;;6.38;3.60;;;;;;;10.96;100.00;99915.41;4919909;29;20035;-81
2022/05/07 03:48:29;;;;;;;10.60;4.38;;;;;;;10.84;100.00;99922.06;4928191;29;20054;-81
2022/05/07 03:50:55;;;;;;;5.63;3.50;;;;;;;10.85;100.00;99923.72;4930808;29;20047;-82
2022/05/07 03:53:30;;;;;;;8.45;3.90;;;;;;;10.90;100.00;99924.00;4921041;29;20441;-82
2022/05/07 03:56:00;;;;;;;8.27;3.80;;;;;;;11.02;100.00;99934.09;4925454;29;20515;-82
2022/05/07 03:58:26;;;;;;;9.88;3.30;;;;;;;10.92;100.00;99945.66;4909776;29;20028;-81
2022/05/07 04:00:54;;;;;;;8.10;3.55;;;;;;;10.93;100.00;99936.78;4921285;29;20036;-81
2022/05/07 04:03:20;;;;;;;6.85;3.45;;;;;;;10.85;100.00;99935.00;4924866;29;20031;-80
2022/05/07 04:05:46;;;;;;;10.48;3.92;;;;;;;10.66;100.00;99940.72;4924681;29;20391;-81
2022/05/07 04:08:12;;;;;;;4.53;2.92;;;;;;;10.80;100.00;99941.78;4907013;29;20082;-81
2022/05/07 04:10:38;;;;;;;8.30;3.40;;;;;;;10.75;100.00;99951.97;4923786;29;20099;-80
2022/05/07 04:13:03;;;;;;;8.40;3.30;;;;;;;10.56;100.00;99941.75;4920329;29;20120;-81
2022/05/07 04:15:29;;;;;;;6.80;3.00;;;;;;;10.45;100.00;99951.81;4923595;29;20489;-81
2022/05/07 04:17:54;;;;;;;7.00;3.03;;;;;;;10.34;100.00;99948.53;4923863;29;20043;-81
2022/05/07 04:20:20;;;;;;;8.43;3.28;;;;;;;10.47;100.00;99952.47;4926215;29;20457;-81
2022/05/07 04:22:46;;;;;;;5.20;3.58;;;;;;;10.38;100.00;99944.56;4921171;29;20032;-80
2022/05/07 04:25:13;;;;;;;7.97;3.13;;;;;;;10.41;100.00;99943.47;4908896;29;20402;-81
2022/05/07 04:27:39;;;;;;;5.18;3.00;;;;;;;10.25;100.00;99946.94;4925413;29;20031;-81
2022/05/07 04:30:06;;;;;;;5.47;2.75;;;;;;;10.38;100.00;99954.28;4922214;29;20167;-81
2022/05/07 04:32:31;;;;;;;8.25;2.92;;;;;;;10.27;100.00;99956.28;4920365;29;20098;-80
2022/05/07 04:34:57;;;;;;;5.53;3.00;;;;;;;10.26;100.00;99966.94;4920196;29;20031;-81
2022/05/07 04:37:26;;;;;;;7.00;3.55;;;;;;;10.29;100.00;99953.50;4928092;29;20028;-82
2022/05/07 04:39:51;;;;;;;3.92;2.60;;;;;;;10.27;100.00;99979.88;4921553;29;20036;-81
2022/05/07 04:42:18;;;;;;;4.95;2.58;;;;;;;10.48;100.00;99961.97;4926423;29;20046;-81
2022/05/07 04:44:43;;;;;;;6.13;3.10;;;;;;;10.48;100.00;99975.09;4921294;29;20035;-81
2022/05/07 04:47:09;;;;;;;4.65;2.75;;;;;;;10.10;100.00;99966.00;4923605;29;20487;-81
2022/05/07 04:49:36;;;;;;;6.45;2.78;;;;;;;10.18;100.00;99970.41;4924441;29;20056;-81
2022/05/07 04:52:05;;;;;;;5.07;3.05;;;;;;;10.47;100.00;99979.50;4922234;29;20367;-81
2022/05/07 04:54:32;;;;;;;5.18;2.80;;;;;;;10.48;100.00;99980.34;4923170;29;20047;-82
2022/05/07 04:56:58;;;;;;;7.22;2.85;;;;;;;10.58;100.00;99980.94;4924690;29;20042;-82
2022/05/07 04:59:24;;;;;;;4.78;2.88;;;;;;;10.51;100.00;99986.06;4922146;29;20036;-82
2022/05/07 05:01:49;;;;;;;5.03;2.78;;;;;;;10.49;100.00;99992.47;4916409;29;20046;-82
2022/05/07 05:04:15;;;;;;;6.97;3.10;;;;;;;10.48;100.00;99985.59;4917558;29;20028;-82
2022/05/07 05:06:42;;;;;;;3.13;2.40;;;;;;;10.61;100.00;99995.53;4924569;29;20076;-83
2022/05/07 05:09:08;;;;;;;4.55;2.58;;;;;;;10.57;100.00;99993.28;4928882;29;20024;-82
2022/05/07 05:11:34;;;;;;;4.30;2.60;;;;;;;10.61;100.00;100001.63;4920244;29;20510;-82
2022/05/07 05:14:01;;;;;;;3.92;2.40;;;;;;;10.67;100.00;100000.94;4919913;29;20058;-82
2022/05/07 05:16:27;;;;;;;4.55;2.13;;;;;;;10.69;100.00;100014.72;4928757;29;20028;-83
2022/05/07 05:18:53;;;;;;;3.42;2.20;;;;;;;10.68;100.00;100007.81;4925150;29;20378;-82
2022/05/07 05:21:19;;;;;;;4.65;2.25;;;;;;;10.61;100.00;100006.88;4924160;29;20040;-83
2022/05/07 05:23:47;;;;;;;2.30;1.90;;;;;;;10.62;100.00;100019.03;4924706;29;20425;-82
2022/05/07 05:26:13;;;;;;;4.00;2.10;;;;;;;10.90;100.00;100010.66;4921869;29;20508;-83
2022/05/07 05:28:40;;;;;;;2.83;1.98;;;;;;;10.87;100.00;100013.66;4920950;29;20087;-83
2022/05/07 05:31:06;;;;;;;6.60;2.70;;;;;;;10.89;100.00;100021.34;4925038;29;20033;-82
2022/05/07 05:33:32;;;;;;;4.07;2.05;;;;;;;10.78;100.00;100027.78;4921647;29;20195;-82
2022/05/07 05:35:58;;;;;;;4.93;2.45;;;;;;;10.82;100.00;100034.38;4921884;29;20028;-81
2022/05/07 05:38:24;;;;;;;2.95;2.40;;;;;;;10.82;100.00;100024.66;4922563;29;20031;-81
2022/05/07 05:40:50;;;;;;;5.18;2.13;;;;;;;10.86;100.00;100025.16;4924560;29;20496;-81
2022/05/07 05:43:18;;;;;;;3.75;2.50;;;;;;;11.07;100.00;100031.59;4910147;29;20035;-81
2022/05/07 05:45:43;;;;;;;4.05;2.20;;;;;;;11.02;100.00;100040.00;4923873;29;20117;-82
2022/05/07 05:48:09;;;;;;;2.60;2.35;;;;;;;11.13;100.00;100041.41;4926748;29;20032;-80
2022/05/07 05:50:35;;;;;;;4.38;2.03;;;;;;;11.27;100.00;100048.56;4927588;29;20056;-82
2022/05/07 05:53:01;;;;;;;3.35;2.30;;;;;;;11.36;100.00;100046.69;4927045;29;20035;-82
2022/05/07 05:55:26;;;;;;;3.47;1.88;;;;;;;11.51;100.00;100053.84;4923494;29;20504;-80
2022/05/07 05:57:52;;;;;;;6.43;2.60;;;;;;;11.51;100.00;100052.00;4915657;29;20035;-81
2022/05/07 06:00:18;;;;;;;5.47;2.38;;;;;;;11.69;100.00;100056.16;4918500;29;20355;-82
2022/05/07 06:02:47;;;;;;;6.35;2.30;;;;;;;11.72;100.00;100063.69;4923039;29;20378;-81
2022/05/07 06:05:14;;;;;;;5.13;2.53;;;;;;;11.88;100.00;100070.63;4906823;29;20544;-81
2022/05/07 06:07:39;;;;;;;8.80;2.58;;;;;;;11.82;100.00;100064.28;4923347;29;20406;-81
2022/05/07 06:10:06;;;;;;;5.07;2.78;;;;;;;11.87;100.00;100071.63;4920277;29;20029;-81
2022/05/07 06:12:32;;;;;;;3.63;2.50;;;;;;;11.94;100.00;100076.97;4921044;29;20047;-81
2022/05/07 06:14:58;;;;;;;6.57;2.90;;;;;;;12.08;100.00;100078.88;4921582;29;20032;-81
2022/05/07 06:17:25;;;;;;;8.40;2.83;;;;;;;12.10;100.00;100083.97;4924408;29;20565;-81
2022/05/07 06:19:51;;;;;;;5.43;2.72;;;;;;;12.03;100.00;100081.22;4922933;29;20094;-82
2022/05/07 06:22:18;;;;;;;7.68;2.90;;;;;;;12.14;100.00;100083.41;4920537;29;20043;-82
2022/05/07 06:27:35;;;;;;;5.93;2.50;;;;;;;12.30;100.00;100089.53;4927556;29;20056;-81
2022/05/07 06:30:03;;;;;;;9.27;3.03;;;;;;;12.35;100.00;100086.34;4920996;29;20044;-82
2022/05/07 06:32:37;;;;;;;7.25;2.70;;;;;;;12.46;100.00;100093.00;4920531;29;20406;-88
2022/05/07 06:35:04;;;;;;;7.03;3.05;;;;;;;12.24;100.00;100096.31;4923255;29;20044;-87
2022/05/07 06:37:31;;;;;;;4.53;3.00;;;;;;;12.55;100.00;100099.78;4925711;29;20036;-89
2022/05/07 06:39:57;;;;;;;6.90;3.20;;;;;;;12.60;100.00;100102.72;4921873;29;20028;-86
2022/05/07 06:42:23;;;;;;;6.78;2.92;;;;;;;12.74;100.00;100108.16;4908210;29;20031;-89
2022/05/07 06:44:48;;;;;;;8.85;3.40;;;;;;;12.52;100.00;100097.53;4934135;29;20047;-87
2022/05/07 06:47:14;;;;;;;7.40;3.22;;;;;;;12.68;100.00;100110.53;4927635;29;20118;-85
2022/05/07 06:49:43;;;;;;;8.48;3.30;;;;;;;12.81;100.00;100115.16;4928109;29;20106;-84
2022/05/07 06:52:09;;;;;;;5.13;2.80;;;;;;;12.89;100.00;100106.34;4929251;29;20032;-87
2022/05/07 06:54:34;;;;;;;6.43;3.42;;;;;;;12.98;100.00;100113.16;4928364;29;20565;-84
2022/05/07 06:57:01;;;;;;;8.60;2.95;;;;;;;12.97;100.00;100114.16;4924807;29;20032;-85
2022/05/07 06:59:26;;;;;;;5.53;3.05;;;;;;;13.08;100.00;100106.75;4926617;29;20032;-87
2022/05/07 07:01:54;;;;;;;8.77;3.78;;;;;;;13.00;100.00;100113.78;4927788;29;20023;-89
2022/05/07 07:04:20;;;;;;;10.38;3.33;;;;;;;12.99;100.00;100104.25;4924129;29;20035;-87
2022/05/07 07:06:46;;;;;;;6.60;2.75;;;;;;;12.96;100.00;100109.84;4924217;29;20056;-89
2022/05/07 07:09:11;;;;;;;9.00;3.38;;;;;;;12.92;100.00;100105.97;4926547;29;20486;-88
2022/05/07 07:11:38;;;;;;;8.77;3.17;;;;;;;13.11;100.00;100107.22;4921450;29;20060;-86
2022/05/07 07:14:04;;;;;;;9.45;3.75;;;;;;;13.27;100.00;100108.81;4926460;29;20036;-87
2022/05/07 07:16:30;;;;;;;9.80;3.05;;;;;;;13.33;100.00;100109.91;4928371;29;20024;-87
2022/05/07 07:18:56;;;;;;;6.90;3.55;;;;;;;13.31;100.00;100103.16;4928218;29;20023;-87
2022/05/07 07:21:21;;;;;;;5.22;2.80;;;;;;;13.32;100.00;100117.97;4930074;29;20690;-89
2022/05/07 07:23:48;;;;;;;8.23;3.47;;;;;;;13.28;100.00;100107.81;4927331;29;20028;-88
2022/05/07 07:26:14;;;;;;;6.78;3.63;;;;;;;13.17;100.00;100113.59;4925200;29;20115;-87
2022/05/07 07:28:40;;;;;;;7.40;3.55;;;;;;;13.28;100.00;100123.63;4920983;29;20033;-87
2022/05/07 07:31:10;;;;;;;7.65;3.03;;;;;;;13.38;100.00;100127.81;4924954;29;20031;-86
2022/05/07 07:33:39;;;;;;;7.55;3.28;;;;;;;13.52;100.00;100126.16;4930536;29;20032;-89
2022/05/07 07:36:10;;;;;;;7.78;3.50;;;;;;;13.48;100.00;100127.53;4926784;29;20470;-87
2022/05/07 07:38:37;;;;;;;6.75;3.45;;;;;;;13.52;100.00;100129.59;4928839;29;20047;-88
2022/05/07 07:41:03;;;;;;;9.02;3.35;;;;;;;13.61;100.00;100117.09;4930166;29;20401;-87
2022/05/07 07:43:29;;;;;;;5.80;3.20;;;;;;;13.74;100.00;100128.81;4926951;29;20036;-86
2022/05/07 07:48:39;;;;;;;8.85;4.07;;;;;;;13.59;100.00;100144.69;4925808;29;20376;-84
2022/05/07 07:51:06;;;;;;;5.72;3.42;;;;;;;13.74;100.00;100134.88;4924221;29;20055;-85
2022/05/07 07:53:32;;;;;;;10.95;3.97;;;;;;;13.67;100.00;100132.19;4920167;29;20040;-85
2022/05/07 07:55:58;;;;;;;7.53;3.30;;;;;;;13.81;100.00;100132.31;4922021;29;20040;-85
2022/05/07 07:58:24;;;;;;;7.68;4.03;;;;;;;13.84;100.00;100138.03;4919303;29;20053;-85
2022/05/07 08:00:50;;;;;;;10.27;4.25;;;;;;;13.72;100.00;100134.25;4922935;29;20032;-84
2022/05/07 08:03:19;;;;;;;7.75;3.38;;;;;;;13.92;100.00;100137.09;4917885;29;20036;-85
2022/05/07 08:05:46;;;;;;;9.20;3.40;;;;;;;14.08;100.00;100149.19;4919147;29;20038;-85
2022/05/07 08:13:45;;;;;;;7.90;3.75;;;;;;;14.34;100.00;100131.94;4917244;29;20035;-84
2022/05/07 08:16:12;;;;;;;9.45;4.03;;;;;;;14.37;100.00;100142.13;4915374;29;20032;-84
2022/05/07 08:18:39;;;;;;;8.32;3.78;;;;;;;14.40;100.00;100144.38;4916513;29;20501;-83
2022/05/07 08:21:06;;;;;;;6.88;3.30;;;;;;;14.41;100.00;100146.03;4922427;29;20036;-87
2022/05/07 08:23:32;;;;;;;12.88;4.13;;;;;;;14.46;100.00;100136.69;4917424;29;20867;-84
2022/05/07 08:25:58;;;;;;;8.02;4.05;;;;;;;14.53;100.00;100142.81;4918354;29;20032;-83
2022/05/07 08:28:27;;;;;;;9.40;3.70;;;;;;;14.60;100.00;100141.06;4917006;29;20490;-84
2022/05/07 08:30:53;;;;;;;9.77;4.22;;;;;;;14.69;100.00;100150.44;4923251;29;20032;-83
2022/05/07 08:33:20;;;;;;;5.70;3.47;;;;;;;14.65;100.00;100149.22;4918157;29;20066;-83
2022/05/07 08:35:46;;;;;;;12.70;4.45;;;;;;;14.60;100.00;100141.06;4919212;29;20391;-83
2022/05/07 08:38:12;;;;;;;8.52;4.32;;;;;;;14.78;100.00;100153.00;4905215;29;20044;-83
2022/05/07 08:40:42;;;;;;;9.45;4.60;;;;;;;14.81;100.00;100150.75;4917523;29;20043;-84
2022/05/07 08:43:08;;;;;;;7.22;3.70;;;;;;;14.96;100.00;100155.09;4913267;29;20024;-83
2022/05/07 08:45:39;;;;;;;8.63;3.80;;;;;;;14.91;100.00;100153.03;4904938;29;20484;-82
2022/05/07 08:48:06;;;;;;;8.77;4.07;;;;;;;15.06;100.00;100145.00;4915277;29;20047;-82
2022/05/07 08:50:31;;;;;;;6.65;3.78;;;;;;;15.05;100.00;100137.25;4915612;29;20056;-82
2022/05/07 08:52:57;;;;;;;9.20;3.97;;;;;;;15.06;100.00;100149.47;4914366;29;20119;-82
2022/05/07 08:55:23;;;;;;;6.43;3.85;;;;;;;15.11;100.00;100142.56;4921416;29;20093;-82
2022/05/07 08:57:50;;;;;;;10.38;4.45;;;;;;;15.20;100.00;100145.88;4917423;29;20036;-82
2022/05/07 09:00:21;;;;;;;11.75;4.50;;;;;;;15.31;100.00;100151.59;4918063;29;20040;-83
2022/05/07 09:02:52;;;;;;;9.10;4.35;;;;;;;15.36;100.00;100151.81;4913507;29;20036;-82
2022/05/07 09:05:20;;;;;;;10.18;3.80;;;;;;;15.50;100.00;100160.63;4911678;29;20395;-84
2022/05/07 09:07:54;;;;;;;9.48;4.30;;;;;;;15.43;100.00;100155.28;4914814;29;20360;-83
2022/05/07 09:10:20;;;;;;;;;;;;;;;15.54;100.00;100152.09;4916513;29;20486;-82
2022/05/07 09:12:45;;;;;;;12.65;4.65;;;;;;;15.57;100.00;100153.50;4924113;29;19922;-83
2022/05/07 09:15:11;;;;;;;12.90;4.63;;;;;;;15.58;100.00;100160.41;4925210;29;20449;-84
2022/05/07 09:17:37;;;;;;;9.68;4.57;;;;;;;15.51;100.00;100146.38;4921951;29;20094;-83
2022/05/07 09:20:14;;;;;;;8.65;4.35;;;;;;;15.55;100.00;100153.72;4920412;29;20032;-83
2022/05/07 09:22:56;;;;;;;9.35;5.00;;;;;;;15.56;100.00;100154.50;4917665;29;20449;-83
2022/05/07 09:25:27;;;;;;;13.20;4.50;;;;;;;15.77;100.00;100152.72;4918406;29;20047;-86
2022/05/07 09:27:56;;;;;;;12.30;4.97;;;;;;;15.85;100.00;100156.00;4922615;29;20138;-86
2022/05/07 09:30:27;;;;;;;8.77;4.75;;;;;;;16.04;100.00;100153.59;4924939;29;20036;-86
2022/05/07 09:32:58;;;;;;;7.85;5.00;;;;;;;16.31;100.00;100161.56;4918411;29;20036;-85
2022/05/07 09:38:11;;;;;;;10.82;4.75;;;;;;;16.61;100.00;100166.41;4926415;29;20032;-86
2022/05/07 09:40:39;;;;;;;9.30;4.68;;;;;;;16.82;100.00;100172.47;4921454;29;20442;-85
2022/05/07 09:43:05;;;;;;;11.07;4.95;;;;;;;17.13;100.00;100165.69;4920702;29;20442;-84
2022/05/07 09:45:31;;;;;;;6.88;4.60;;;;;;;17.14;100.00;100167.31;4921134;29;20067;-85
2022/05/07 09:48:00;;;;;;;12.98;5.50;;;;;;;17.25;100.00;100166.66;4920052;29;20070;-85
2022/05/07 09:58:54;;;;;;;7.00;4.63;;;;;;;18.11;100.00;100185.00;4922775;29;20112;-84
2022/05/07 10:01:26;;;;;;;9.82;4.90;;;;;;;17.78;100.00;100178.03;4904928;29;20053;-84
2022/05/07 10:04:25;;;;;;;10.05;4.88;;;;;;;17.51;100.00;100186.16;4929013;29;20061;-85
2022/05/07 10:07:03;;;;;;;10.43;5.20;;;;;;;17.50;100.00;100184.53;4925507;29;20059;-84
2022/05/07 10:09:42;;;;;;;8.45;4.85;;;;;;;17.26;100.00;100186.06;4923392;29;20033;-84
2022/05/07 10:12:15;;;;;;;9.27;5.28;;;;;;;17.58;100.00;100193.25;4919037;29;20038;-84
2022/05/07 10:14:42;;;;;;;7.60;4.88;;;;;;;17.99;100.00;100198.13;4922702;29;20486;-84
2022/05/07 10:17:12;;;;;;;9.35;5.25;;;;;;;17.84;100.00;100184.31;4926447;29;20418;-84
2022/05/07 10:19:44;;;;;;;12.20;5.38;;;;;;;18.15;100.00;100195.19;4925153;29;20545;-84
2022/05/07 10:22:24;;;;;;;7.60;4.97;;;;;;;18.21;100.00;100199.63;4901991;29;20082;-82
2022/05/07 10:25:06;;;;;;;10.30;5.97;;;;;;;18.53;100.00;100199.56;4924694;29;20059;-83
2022/05/07 10:27:42;;;;;;;9.85;5.05;;;;;;;18.53;100.00;100207.53;4921578;29;20031;-83
2022/05/07 10:30:21;;;;;;;11.05;5.65;;;;;;;18.10;100.00;100209.94;4921575;29;20036;-83
2022/05/07 10:32:59;;;;;;;10.65;5.28;;;;;;;18.04;100.00;100215.28;4920520;29;20034;-82
2022/05/07 10:35:48;;;;;;;10.43;6.03;;;;;;;18.06;100.00;100216.69;4922217;29;20126;-83
2022/05/07 10:38:36;;;;;;;9.10;5.22;;;;;;;17.84;100.00;100213.53;4921427;29;20027;-82
2022/05/07 10:41:17;;;;;;;10.68;5.43;;;;;;;17.39;100.00;100220.50;4919837;29;20072;-82
2022/05/07 10:43:46;;;;;;;6.75;4.85;;;;;;;17.49;100.00;100213.91;4916465;29;20045;-83
2022/05/07 10:46:16;;;;;;;11.75;5.53;;;;;;;17.49;100.00;100214.75;4917643;29;20453;-82
2022/05/07 10:48:57;;;;;;;15.43;5.80;;;;;;;17.62;100.00;100219.19;4918980;29;20745;-82
2022/05/07 10:51:30;;;;;;;8.00;5.47;;;;;;;17.19;100.00;100215.25;4921231;29;20060;-82
2022/05/07 10:54:03;;;;;;;9.60;5.70;;;;;;;17.27;100.00;100217.66;4923716;29;20052;-82
2022/05/07 10:56:30;;;;;;;6.47;5.15;;;;;;;17.05;100.00;100213.66;4900812;29;20043;-82
2022/05/07 10:58:57;;;;;;;8.88;5.70;;;;;;;17.15;100.00;100218.53;4915578;29;20028;-82
2022/05/07 11:01:25;;;;;;;9.00;5.75;;;;;;;17.29;100.00;100220.13;4922497;29;20044;-83
2022/05/07 11:04:04;;;;;;;10.05;6.35;;;;;;;17.67;100.00;100226.47;4921903;29;20091;-83
2022/05/07 11:06:30;;;;;;;13.80;6.57;;;;;;;17.48;100.00;100236.19;4917420;29;20043;-82
2022/05/07 11:08:56;;;;;;;9.13;5.57;;;;;;;17.75;100.00;100228.91;4917391;29;20035;-81
2022/05/07 11:11:24;;;;;;;9.93;6.00;;;;;;;17.83;100.00;100228.66;4925722;29;20394;-82
2022/05/07 11:13:54;;;;;;;10.15;6.57;;;;;;;17.96;100.00;100235.72;4923585;29;20053;-82
2022/05/07 11:16:22;;;;;;;8.00;5.25;;;;;;;18.31;100.00;100229.19;4922545;29;20031;-81
2022/05/07 11:18:51;;;;;;;11.25;5.20;;;;;;;17.86;99.68;100230.06;4923059;29;20039;-82
2022/05/07 11:21:18;;;;;;;9.35;5.25;;;;;;;17.63;99.98;100225.28;4924632;29;20039;-82
2022/05/07 11:23:44;;;;;;;12.32;5.90;;;;;;;17.51;100.00;100231.28;4922889;29;20048;-81
2022/05/07 11:26:16;;;;;;;7.82;5.32;;;;;;;17.81;100.00;100227.25;4919731;29;20032;-82
2022/05/07 11:28:44;;;;;;;11.48;6.28;;;;;;;17.95;100.00;100217.34;4915761;29;20508;-82
2022/05/07 11:31:31;;;;;;;12.68;6.03;;;;;;;18.46;100.00;100233.34;4896305;29;20090;-82
2022/05/07 11:34:06;;;;;;;11.45;6.55;;;;;;;18.42;99.75;100241.75;4918744;29;20031;-82
2022/05/07 11:36:33;;;;;;;15.38;6.88;;;;;;;18.35;100.00;100230.38;4922785;29;20039;-82
2022/05/07 11:39:06;;;;;;;13.77;7.45;;;;;;;17.88;99.94;100232.50;4919277;29;20092;-82
2022/05/07 11:41:33;;;;;;;12.70;7.25;;;;;;;17.66;100.00;100241.63;4916639;29;20054;-82
2022/05/07 11:46:56;;;;;;;12.20;7.80;;;;;;;17.50;100.00;100248.22;4918709;29;20091;-81
2022/05/07 11:49:36;;;;;;;11.38;6.65;;;;;;;17.87;100.00;100247.63;4918954;29;20491;-81